sensor_id;sensor_type;location;lat;lon;timestamp;temperature;humidity
47921;DHT22;33686;48.770;9.186;2023-03-01T06:16:09;0.20;99.90
47921;DHT22;33686;48.770;9.186;2023-03-01T06:18:35;0.20;99.90
47921;DHT22;33686;48.770;9.186;2023-03-01T06:21:01;0.10;99.90
47921;DHT22;33686;48.770;9.186;2023-03-01T06:23:26;0.20;99.90
47921;DHT22;33686;48.770;9.186;2023-03-01T06:25:52;0.20;99.90
47921;DHT22;33686;48.770;9.186;2023-03-01T06:28:18;0.20;99.90
47921;DHT22;33686;48.770;9.186;2023-03-01T06:30:44;0.10;99.90
47921;DHT22;33686;48.770;9.186;2023-03-01T06:33:09;0.10;99.90
47921;DHT22;33686;48.770;9.186;2023-03-01T06:35:35;0.10;99.90
47921;DHT22;33686;48.770;9.186;2023-03-01T06:38:01;0.10;99.90
47921;DHT22;33686;48.770;9.186;2023-03-01T06:40:27;0.20;99.90
47921;DHT22;33686;48.770;9.186;2023-03-01T06:42:53;0.20;99.90
47921;DHT22;33686;48.770;9.186;2023-03-01T06:45:19;0.20;99.90
47921;DHT22;33686;48.770;9.186;2023-03-01T06:47:45;0.20;99.90
47921;DHT22;33686;48.770;9.186;2023-03-01T06:50:11;0.20;99.90
47921;DHT22;33686;48.770;9.186;2023-03-01T06:52:37;0.20;99.90
47921;DHT22;33686;48.770;9.186;2023-03-01T06:55:03;0.20;99.90
47921;DHT22;33686;48.770;9.186;2023-03-01T06:57:29;0.30;99.90
47921;DHT22;33686;48.770;9.186;2023-03-01T06:59:54;0.40;99.90
47921;DHT22;33686;48.770;9.186;2023-03-01T07:02:20;0.50;99.90
47921;DHT22;33686;48.770;9.186;2023-03-01T07:04:45;1.60;99.90
47921;DHT22;33686;48.770;9.186;2023-03-01T07:07:11;2.30;99.90
47921;DHT22;33686;48.770;9.186;2023-03-01T07:09:36;3.00;99.90
47921;DHT22;33686;48.770;9.186;2023-03-01T07:12:02;3.70;99.90
47921;DHT22;33686;48.770;9.186;2023-03-01T07:14:27;4.30;99.90
47921;DHT22;33686;48.770;9.186;2023-03-01T07:16:53;4.60;99.90
47921;DHT22;33686;48.770;9.186;2023-03-01T07:19:19;5.00;99.90
47921;DHT22;33686;48.770;9.186;2023-03-01T07:21:45;5.20;99.90
47921;DHT22;33686;48.770;9.186;2023-03-01T07:24:11;4.90;99.90
47921;DHT22;33686;48.770;9.186;2023-03-01T07:26:36;5.70;99.90
47921;DHT22;33686;48.770;9.186;2023-03-01T07:29:03;6.50;99.90
47921;DHT22;33686;48.770;9.186;2023-03-01T07:31:29;6.90;99.90
47921;DHT22;33686;48.770;9.186;2023-03-01T07:33:55;6.90;99.90
47921;DHT22;33686;48.770;9.186;2023-03-01T07:36:20;7.90;99.90
47921;DHT22;33686;48.770;9.186;2023-03-01T07:38:46;7.30;99.90
47921;DHT22;33686;48.770;9.186;2023-03-01T07:41:12;6.50;99.90
47921;DHT22;33686;48.770;9.186;2023-03-01T07:43:37;7.20;99.90
47921;DHT22;33686;48.770;9.186;2023-03-01T07:46:03;7.10;99.90
47921;DHT22;33686;48.770;9.186;2023-03-01T07:48:29;7.60;99.90
47921;DHT22;33686;48.770;9.186;2023-03-01T07:50:59;8.80;99.80
47921;DHT22;33686;48.770;9.186;2023-03-01T07:53:25;8.20;99.90
47921;DHT22;33686;48.770;9.186;2023-03-01T07:55:59;8.10;99.90
47921;DHT22;33686;48.770;9.186;2023-03-01T07:58:25;8.00;99.90
47921;DHT22;33686;48.770;9.186;2023-03-01T08:00:50;8.00;99.90
47921;DHT22;33686;48.770;9.186;2023-03-01T08:03:16;7.30;99.90
47921;DHT22;33686;48.770;9.186;2023-03-01T08:05:41;8.30;99.90
47921;DHT22;33686;48.770;9.186;2023-03-01T08:08:07;8.30;99.90
47921;DHT22;33686;48.770;9.186;2023-03-01T08:10:32;8.40;99.80
47921;DHT22;33686;48.770;9.186;2023-03-01T08:12:58;7.40;99.90
47921;DHT22;33686;48.770;9.186;2023-03-01T08:15:23;7.40;99.90
47921;DHT22;33686;48.770;9.186;2023-03-01T08:17:49;8.80;99.70
47921;DHT22;33686;48.770;9.186;2023-03-01T08:20:15;8.40;99.40
47921;DHT22;33686;48.770;9.186;2023-03-01T08:22:42;8.40;99.60
47921;DHT22;33686;48.770;9.186;2023-03-01T08:25:07;8.20;99.90
47921;DHT22;33686;48.770;9.186;2023-03-01T08:27:33;8.60;98.90
47921;DHT22;33686;48.770;9.186;2023-03-01T08:29:58;7.50;99.90
47921;DHT22;33686;48.770;9.186;2023-03-01T08:32:24;8.10;99.90
47921;DHT22;33686;48.770;9.186;2023-03-01T08:34:49;8.00;99.90
47921;DHT22;33686;48.770;9.186;2023-03-01T08:37:15;8.40;99.20
47921;DHT22;33686;48.770;9.186;2023-03-01T08:39:40;8.70;99.20
47921;DHT22;33686;48.770;9.186;2023-03-01T08:42:06;8.30;99.70
47921;DHT22;33686;48.770;9.186;2023-03-01T08:44:31;7.60;99.90
47921;DHT22;33686;48.770;9.186;2023-03-01T08:46:57;8.00;99.90
47921;DHT22;33686;48.770;9.186;2023-03-01T08:49:23;9.00;98.70
47921;DHT22;33686;48.770;9.186;2023-03-01T08:51:49;8.80;98.60
47921;DHT22;33686;48.770;9.186;2023-03-01T08:54:15;7.70;99.80
47921;DHT22;33686;48.770;9.186;2023-03-01T08:56:41;8.00;99.40
47921;DHT22;33686;48.770;9.186;2023-03-01T08:59:07;8.10;99.40
47921;DHT22;33686;48.770;9.186;2023-03-01T09:01:32;8.60;98.90
47921;DHT22;33686;48.770;9.186;2023-03-01T09:03:58;8.00;99.50
47921;DHT22;33686;48.770;9.186;2023-03-01T09:06:24;7.50;99.90
47921;DHT22;33686;48.770;9.186;2023-03-01T09:08:49;7.70;99.80
47921;DHT22;33686;48.770;9.186;2023-03-01T09:11:16;7.30;99.90
47921;DHT22;33686;48.770;9.186;2023-03-01T09:13:43;6.50;99.90
47921;DHT22;33686;48.770;9.186;2023-03-01T09:16:08;7.10;99.90
47921;DHT22;33686;48.770;9.186;2023-03-01T09:18:34;6.30;99.90
47921;DHT22;33686;48.770;9.186;2023-03-01T09:21:00;6.80;99.90
47921;DHT22;33686;48.770;9.186;2023-03-01T09:23:26;6.90;99.90
47921;DHT22;33686;48.770;9.186;2023-03-01T09:25:52;8.00;99.80
47921;DHT22;33686;48.770;9.186;2023-03-01T09:28:17;6.80;99.90
47921;DHT22;33686;48.770;9.186;2023-03-01T09:30:43;6.40;99.90
47921;DHT22;33686;48.770;9.186;2023-03-01T09:33:08;5.80;99.90
47921;DHT22;33686;48.770;9.186;2023-03-01T09:35:40;5.70;99.90
47921;DHT22;33686;48.770;9.186;2023-03-01T09:38:11;5.70;99.90
47921;DHT22;33686;48.770;9.186;2023-03-01T09:40:37;5.30;99.90
47921;DHT22;33686;48.770;9.186;2023-03-01T09:43:25;5.10;99.90
47921;DHT22;33686;48.770;9.186;2023-03-01T09:45:52;5.10;99.90
47921;DHT22;33686;48.770;9.186;2023-03-01T09:48:20;4.80;99.90
47921;DHT22;33686;48.770;9.186;2023-03-01T09:50:47;4.60;99.90
47921;DHT22;33686;48.770;9.186;2023-03-01T09:53:20;5.00;99.90
47921;DHT22;33686;48.770;9.186;2023-03-01T09:55:59;4.50;99.90
47921;DHT22;33686;48.770;9.186;2023-03-01T09:58:48;4.10;99.90
47921;DHT22;33686;48.770;9.186;2023-03-01T10:04:26;4.10;99.90
47921;DHT22;33686;48.770;9.186;2023-03-01T10:09:32;3.80;99.90
47921;DHT22;33686;48.770;9.186;2023-03-01T10:11:58;4.00;99.90
47921;DHT22;33686;48.770;9.186;2023-03-01T10:14:33;3.70;99.90
47921;DHT22;33686;48.770;9.186;2023-03-01T10:17:02;3.80;99.90
47921;DHT22;33686;48.770;9.186;2023-03-01T10:19:44;3.70;99.90
47921;DHT22;33686;48.770;9.186;2023-03-01T10:24:39;3.90;99.90
47921;DHT22;33686;48.770;9.186;2023-03-01T10:27:05;3.80;99.90
47921;DHT22;33686;48.770;9.186;2023-03-01T10:29:44;3.80;99.90
47921;DHT22;33686;48.770;9.186;2023-03-01T10:32:11;4.00;99.90
47921;DHT22;33686;48.770;9.186;2023-03-01T10:34:37;4.00;99.90
47921;DHT22;33686;48.770;9.186;2023-03-01T10:39:34;4.00;99.90
47921;DHT22;33686;48.770;9.186;2023-03-01T10:42:01;4.00;99.90
47921;DHT22;33686;48.770;9.186;2023-03-01T10:44:40;4.20;99.90
47921;DHT22;33686;48.770;9.186;2023-03-01T10:47:26;4.30;99.90
47921;DHT22;33686;48.770;9.186;2023-03-01T10:49:58;4.10;99.90
47921;DHT22;33686;48.770;9.186;2023-03-01T10:52:29;4.20;99.90
47921;DHT22;33686;48.770;9.186;2023-03-01T10:54:59;4.10;99.90
47921;DHT22;33686;48.770;9.186;2023-03-01T10:57:29;4.00;99.90
47921;DHT22;33686;48.770;9.186;2023-03-01T11:00:00;4.10;99.90
47921;DHT22;33686;48.770;9.186;2023-03-01T11:02:29;4.20;99.90
47921;DHT22;33686;48.770;9.186;2023-03-01T11:04:56;4.20;99.90
47921;DHT22;33686;48.770;9.186;2023-03-01T11:07:22;4.30;99.90
47921;DHT22;33686;48.770;9.186;2023-03-01T11:09:48;4.50;99.90
47921;DHT22;33686;48.770;9.186;2023-03-01T11:12:13;4.40;99.90
47921;DHT22;33686;48.770;9.186;2023-03-01T11:14:45;4.60;99.90
47921;DHT22;33686;48.770;9.186;2023-03-01T11:17:21;4.70;99.90
47921;DHT22;33686;48.770;9.186;2023-03-01T11:20:01;4.50;99.90
47921;DHT22;33686;48.770;9.186;2023-03-01T11:22:26;4.50;99.90
47921;DHT22;33686;48.770;9.186;2023-03-01T11:24:53;4.50;99.90
47921;DHT22;33686;48.770;9.186;2023-03-01T11:27:21;4.60;99.90
47921;DHT22;33686;48.770;9.186;2023-03-01T11:29:55;4.90;99.90
47921;DHT22;33686;48.770;9.186;2023-03-01T11:32:24;5.00;99.90
47921;DHT22;33686;48.770;9.186;2023-03-01T11:37:21;5.20;99.90
47921;DHT22;33686;48.770;9.186;2023-03-01T11:42:18;5.00;99.90
47921;DHT22;33686;48.770;9.186;2023-03-01T11:44:46;5.20;99.90
47921;DHT22;33686;48.770;9.186;2023-03-01T11:50:07;5.10;99.90
47921;DHT22;33686;48.770;9.186;2023-03-01T11:52:38;5.10;99.90
47921;DHT22;33686;48.770;9.186;2023-03-01T11:55:12;5.00;99.90
47921;DHT22;33686;48.770;9.186;2023-03-01T12:00:20;5.10;99.90
47921;DHT22;33686;48.770;9.186;2023-03-01T12:03:15;5.20;99.90
47921;DHT22;33686;48.770;9.186;2023-03-01T12:05:40;5.40;99.90
47921;DHT22;33686;48.770;9.186;2023-03-01T12:08:26;5.50;99.90
47921;DHT22;33686;48.770;9.186;2023-03-01T12:11:11;5.60;99.90
47921;DHT22;33686;48.770;9.186;2023-03-01T12:24:20;5.70;99.90
47921;DHT22;33686;48.770;9.186;2023-03-01T12:34:16;6.00;99.90
47921;DHT22;33686;48.770;9.186;2023-03-01T12:39:32;6.10;99.90
47921;DHT22;33686;48.770;9.186;2023-03-01T12:44:30;6.10;99.90
47921;DHT22;33686;48.770;9.186;2023-03-01T12:47:11;6.20;99.90
47921;DHT22;33686;48.770;9.186;2023-03-01T12:49:44;6.20;99.90
47921;DHT22;33686;48.770;9.186;2023-03-01T12:52:15;6.20;99.90
47921;DHT22;33686;48.770;9.186;2023-03-01T12:54:41;6.30;99.90
47921;DHT22;33686;48.770;9.186;2023-03-01T13:00:00;6.30;99.90
47921;DHT22;33686;48.770;9.186;2023-03-01T13:02:35;6.50;99.90
47921;DHT22;33686;48.770;9.186;2023-03-01T13:05:06;6.50;99.90
47921;DHT22;33686;48.770;9.186;2023-03-01T13:07:37;6.70;99.90
47921;DHT22;33686;48.770;9.186;2023-03-01T13:10:14;6.80;99.90
47921;DHT22;33686;48.770;9.186;2023-03-01T13:15:24;6.60;99.90
47921;DHT22;33686;48.770;9.186;2023-03-01T13:17:50;6.60;99.90
47921;DHT22;33686;48.770;9.186;2023-03-01T13:20:17;6.70;99.90
47921;DHT22;33686;48.770;9.186;2023-03-01T13:22:44;6.80;99.90
47921;DHT22;33686;48.770;9.186;2023-03-01T13:25:17;6.80;99.90
47921;DHT22;33686;48.770;9.186;2023-03-01T13:27:44;7.00;99.90
47921;DHT22;33686;48.770;9.186;2023-03-01T13:32:56;7.10;99.90
47921;DHT22;33686;48.770;9.186;2023-03-01T13:35:43;7.10;99.90
47921;DHT22;33686;48.770;9.186;2023-03-01T13:43:27;7.20;99.90
47921;DHT22;33686;48.770;9.186;2023-03-01T13:45:53;7.00;99.90
47921;DHT22;33686;48.770;9.186;2023-03-01T13:48:23;6.90;99.90
47921;DHT22;33686;48.770;9.186;2023-03-01T13:50:54;7.00;99.90
47921;DHT22;33686;48.770;9.186;2023-03-01T13:53:23;7.00;99.90
47921;DHT22;33686;48.770;9.186;2023-03-01T13:55:55;7.00;99.90
47921;DHT22;33686;48.770;9.186;2023-03-01T13:58:22;6.90;99.90
47921;DHT22;33686;48.770;9.186;2023-03-01T14:00:54;6.90;99.90
47921;DHT22;33686;48.770;9.186;2023-03-01T14:03:20;7.10;99.90
47921;DHT22;33686;48.770;9.186;2023-03-01T14:08:28;7.10;99.90
47921;DHT22;33686;48.770;9.186;2023-03-01T14:10:56;7.10;99.90
47921;DHT22;33686;48.770;9.186;2023-03-01T14:18:39;6.90;99.90
47921;DHT22;33686;48.770;9.186;2023-03-01T14:21:08;6.80;99.90
47921;DHT22;33686;48.770;9.186;2023-03-01T14:23:34;6.90;99.90
47921;DHT22;33686;48.770;9.186;2023-03-01T14:26:01;6.90;99.90
47921;DHT22;33686;48.770;9.186;2023-03-01T14:28:32;6.80;99.90
47921;DHT22;33686;48.770;9.186;2023-03-01T14:31:00;6.90;99.90
47921;DHT22;33686;48.770;9.186;2023-03-01T14:33:27;7.00;99.90
47921;DHT22;33686;48.770;9.186;2023-03-01T14:35:58;6.90;99.90
47921;DHT22;33686;48.770;9.186;2023-03-01T14:40:57;6.90;99.90
47921;DHT22;33686;48.770;9.186;2023-03-01T14:43:23;6.70;99.90
47921;DHT22;33686;48.770;9.186;2023-03-01T14:45:51;6.80;99.90
47921;DHT22;33686;48.770;9.186;2023-03-01T14:48:16;6.90;99.90
47921;DHT22;33686;48.770;9.186;2023-03-01T14:50:43;6.90;99.90
47921;DHT22;33686;48.770;9.186;2023-03-01T14:53:20;6.90;99.90
47921;DHT22;33686;48.770;9.186;2023-03-01T14:55:50;7.00;99.90
47921;DHT22;33686;48.770;9.186;2023-03-01T14:58:18;7.10;99.90
47921;DHT22;33686;48.770;9.186;2023-03-01T15:00:55;7.10;99.90
47921;DHT22;33686;48.770;9.186;2023-03-01T15:03:24;7.20;99.90
47921;DHT22;33686;48.770;9.186;2023-03-01T15:05:50;7.20;99.90
47921;DHT22;33686;48.770;9.186;2023-03-01T15:08:18;7.10;99.90
47921;DHT22;33686;48.770;9.186;2023-03-01T15:10:55;7.00;99.90
47921;DHT22;33686;48.770;9.186;2023-03-01T15:13:22;6.90;99.90
47921;DHT22;33686;48.770;9.186;2023-03-01T15:15:48;7.00;99.90
47921;DHT22;33686;48.770;9.186;2023-03-01T15:20:40;6.90;99.90
47921;DHT22;33686;48.770;9.186;2023-03-01T15:23:06;6.90;99.90
47921;DHT22;33686;48.770;9.186;2023-03-01T15:25:43;6.90;99.90
47921;DHT22;33686;48.770;9.186;2023-03-01T15:28:17;6.90;99.90
47921;DHT22;33686;48.770;9.186;2023-03-01T15:30:44;6.90;99.90
47921;DHT22;33686;48.770;9.186;2023-03-01T15:33:20;7.00;99.90
47921;DHT22;33686;48.770;9.186;2023-03-01T15:35:53;6.90;99.90
47921;DHT22;33686;48.770;9.186;2023-03-01T15:38:30;6.80;99.90
47921;DHT22;33686;48.770;9.186;2023-03-01T15:40:57;6.80;99.90
47921;DHT22;33686;48.770;9.186;2023-03-01T15:43:43;6.90;99.90
47921;DHT22;33686;48.770;9.186;2023-03-01T15:46:16;6.90;99.90
47921;DHT22;33686;48.770;9.186;2023-03-01T15:48:48;6.90;99.90
47921;DHT22;33686;48.770;9.186;2023-03-01T15:51:17;7.00;99.90
47921;DHT22;33686;48.770;9.186;2023-03-01T15:53:46;6.90;99.90
47921;DHT22;33686;48.770;9.186;2023-03-01T15:56:13;6.80;99.90
47921;DHT22;33686;48.770;9.186;2023-03-01T15:58:38;6.80;99.90
47921;DHT22;33686;48.770;9.186;2023-03-01T16:01:08;6.80;99.90
47921;DHT22;33686;48.770;9.186;2023-03-01T16:03:34;6.70;99.90
47921;DHT22;33686;48.770;9.186;2023-03-01T16:05:59;6.70;99.90
47921;DHT22;33686;48.770;9.186;2023-03-01T16:08:26;6.70;99.90
47921;DHT22;33686;48.770;9.186;2023-03-01T16:10:51;6.70;99.90
47921;DHT22;33686;48.770;9.186;2023-03-01T16:13:19;6.70;99.90
47921;DHT22;33686;48.770;9.186;2023-03-01T16:15:45;6.60;99.90
47921;DHT22;33686;48.770;9.186;2023-03-01T16:18:10;6.70;99.90
47921;DHT22;33686;48.770;9.186;2023-03-01T16:20:37;6.60;99.90
47921;DHT22;33686;48.770;9.186;2023-03-01T16:23:03;6.60;99.90
47921;DHT22;33686;48.770;9.186;2023-03-01T16:25:30;6.60;99.90
47921;DHT22;33686;48.770;9.186;2023-03-01T16:27:56;6.50;99.90
47921;DHT22;33686;48.770;9.186;2023-03-01T16:30:23;6.50;99.90
47921;DHT22;33686;48.770;9.186;2023-03-01T16:32:49;6.50;99.90
47921;DHT22;33686;48.770;9.186;2023-03-01T16:35:16;6.40;99.90
47921;DHT22;33686;48.770;9.186;2023-03-01T16:37:41;6.50;99.90
47921;DHT22;33686;48.770;9.186;2023-03-01T16:40:16;6.40;99.90
47921;DHT22;33686;48.770;9.186;2023-03-01T16:42:42;6.40;99.90
47921;DHT22;33686;48.770;9.186;2023-03-01T16:45:08;6.40;99.90
47921;DHT22;33686;48.770;9.186;2023-03-01T16:47:34;6.30;99.90
47921;DHT22;33686;48.770;9.186;2023-03-01T16:49:59;6.30;99.90
47921;DHT22;33686;48.770;9.186;2023-03-01T16:52:25;6.20;99.90
47921;DHT22;33686;48.770;9.186;2023-03-01T16:54:51;6.20;99.90
47921;DHT22;33686;48.770;9.186;2023-03-01T16:57:17;6.10;99.90
47921;DHT22;33686;48.770;9.186;2023-03-01T16:59:42;6.10;99.90
47921;DHT22;33686;48.770;9.186;2023-03-01T17:02:09;6.10;99.90
47921;DHT22;33686;48.770;9.186;2023-03-01T17:04:36;6.00;99.90
47921;DHT22;33686;48.770;9.186;2023-03-01T17:07:01;6.00;99.90
47921;DHT22;33686;48.770;9.186;2023-03-01T17:09:27;6.00;99.90
47921;DHT22;33686;48.770;9.186;2023-03-01T17:11:52;5.90;99.90
47921;DHT22;33686;48.770;9.186;2023-03-01T17:14:19;5.80;99.90
47921;DHT22;33686;48.770;9.186;2023-03-01T17:16:45;5.70;99.90
47921;DHT22;33686;48.770;9.186;2023-03-01T17:19:11;5.70;99.90
47921;DHT22;33686;48.770;9.186;2023-03-01T17:21:38;5.70;99.90
47921;DHT22;33686;48.770;9.186;2023-03-01T17:24:03;5.60;99.90
47921;DHT22;33686;48.770;9.186;2023-03-01T17:26:29;5.50;99.90
47921;DHT22;33686;48.770;9.186;2023-03-01T17:28:55;5.50;99.90
47921;DHT22;33686;48.770;9.186;2023-03-01T17:31:21;5.40;99.90
47921;DHT22;33686;48.770;9.186;2023-03-01T17:33:47;5.30;99.90
47921;DHT22;33686;48.770;9.186;2023-03-01T17:36:14;5.30;99.90
47921;DHT22;33686;48.770;9.186;2023-03-01T17:38:40;5.10;99.90
47921;DHT22;33686;48.770;9.186;2023-03-01T17:41:05;5.00;99.90
47921;DHT22;33686;48.770;9.186;2023-03-01T17:43:31;5.00;99.90
47921;DHT22;33686;48.770;9.186;2023-03-01T17:45:59;4.90;99.90
47921;DHT22;33686;48.770;9.186;2023-03-01T17:48:24;4.80;99.90
47921;DHT22;33686;48.770;9.186;2023-03-01T17:50:50;4.70;99.90
47921;DHT22;33686;48.770;9.186;2023-03-01T17:53:15;4.50;99.90
47921;DHT22;33686;48.770;9.186;2023-03-01T17:55:42;4.50;99.90
47921;DHT22;33686;48.770;9.186;2023-03-01T17:58:08;4.40;99.90
47921;DHT22;33686;48.770;9.186;2023-03-01T18:00:35;4.20;99.90
47921;DHT22;33686;48.770;9.186;2023-03-01T18:03:00;4.30;99.90
47921;DHT22;33686;48.770;9.186;2023-03-01T18:05:30;4.20;99.90
47921;DHT22;33686;48.770;9.186;2023-03-01T18:07:55;4.10;99.90
47921;DHT22;33686;48.770;9.186;2023-03-01T18:10:21;4.20;99.90
47921;DHT22;33686;48.770;9.186;2023-03-01T18:12:47;4.00;99.90
47921;DHT22;33686;48.770;9.186;2023-03-01T18:15:12;4.10;99.90
47921;DHT22;33686;48.770;9.186;2023-03-01T18:17:38;4.00;99.90
47921;DHT22;33686;48.770;9.186;2023-03-01T18:20:04;4.00;99.90
47921;DHT22;33686;48.770;9.186;2023-03-01T18:22:30;4.00;99.90
47921;DHT22;33686;48.770;9.186;2023-03-01T18:24:55;4.00;99.90
47921;DHT22;33686;48.770;9.186;2023-03-01T18:27:21;3.80;99.90
47921;DHT22;33686;48.770;9.186;2023-03-01T18:29:46;3.80;99.90
47921;DHT22;33686;48.770;9.186;2023-03-01T18:32:12;3.70;99.90
47921;DHT22;33686;48.770;9.186;2023-03-01T18:34:37;3.70;99.90
47921;DHT22;33686;48.770;9.186;2023-03-01T18:37:03;3.70;99.90
47921;DHT22;33686;48.770;9.186;2023-03-01T18:39:29;3.70;99.90
47921;DHT22;33686;48.770;9.186;2023-03-01T18:41:54;3.60;99.90
47921;DHT22;33686;48.770;9.186;2023-03-01T18:44:20;3.50;99.90
47921;DHT22;33686;48.770;9.186;2023-03-01T18:46:45;3.30;99.90
47921;DHT22;33686;48.770;9.186;2023-03-01T18:49:12;3.40;99.90
47921;DHT22;33686;48.770;9.186;2023-03-01T18:51:38;3.40;99.90
47921;DHT22;33686;48.770;9.186;2023-03-01T18:54:04;3.30;99.90
47921;DHT22;33686;48.770;9.186;2023-03-01T18:56:31;3.20;99.90
47921;DHT22;33686;48.770;9.186;2023-03-01T18:58:57;3.10;99.90
47921;DHT22;33686;48.770;9.186;2023-03-01T19:01:24;3.30;99.90
47921;DHT22;33686;48.770;9.186;2023-03-01T19:03:50;3.40;99.90
47921;DHT22;33686;48.770;9.186;2023-03-01T19:06:16;3.40;99.90
47921;DHT22;33686;48.770;9.186;2023-03-01T19:08:42;3.50;99.90
47921;DHT22;33686;48.770;9.186;2023-03-01T19:11:09;3.50;99.90
47921;DHT22;33686;48.770;9.186;2023-03-01T19:13:35;3.40;99.90
47921;DHT22;33686;48.770;9.186;2023-03-01T19:16:10;3.50;99.90
47921;DHT22;33686;48.770;9.186;2023-03-01T19:18:36;3.40;99.90
47921;DHT22;33686;48.770;9.186;2023-03-01T19:21:04;3.40;99.90
47921;DHT22;33686;48.770;9.186;2023-03-01T19:23:30;3.50;99.90
47921;DHT22;33686;48.770;9.186;2023-03-01T19:26:03;3.60;99.90
47921;DHT22;33686;48.770;9.186;2023-03-01T19:28:29;3.40;99.90
47921;DHT22;33686;48.770;9.186;2023-03-01T19:30:58;3.20;99.90
47921;DHT22;33686;48.770;9.186;2023-03-01T19:33:26;3.20;99.90
47921;DHT22;33686;48.770;9.186;2023-03-01T19:35:51;3.20;99.90
47921;DHT22;33686;48.770;9.186;2023-03-01T19:38:17;3.20;99.90
47921;DHT22;33686;48.770;9.186;2023-03-01T19:40:42;3.10;99.90
47921;DHT22;33686;48.770;9.186;2023-03-01T19:43:08;3.00;99.90
47921;DHT22;33686;48.770;9.186;2023-03-01T19:45:33;2.90;99.90
47921;DHT22;33686;48.770;9.186;2023-03-01T19:47:59;2.90;99.90
47921;DHT22;33686;48.770;9.186;2023-03-01T19:50:25;2.70;99.90
47921;DHT22;33686;48.770;9.186;2023-03-01T19:52:51;2.60;99.90
47921;DHT22;33686;48.770;9.186;2023-03-01T19:55:17;2.60;99.90
47921;DHT22;33686;48.770;9.186;2023-03-01T19:57:42;2.70;99.90
47921;DHT22;33686;48.770;9.186;2023-03-01T20:00:08;2.60;99.90
47921;DHT22;33686;48.770;9.186;2023-03-01T20:02:40;2.80;99.90
47921;DHT22;33686;48.770;9.186;2023-03-01T20:05:05;2.60;99.90
47921;DHT22;33686;48.770;9.186;2023-03-01T20:07:31;2.60;99.90
47921;DHT22;33686;48.770;9.186;2023-03-01T20:09:56;2.50;99.90
47921;DHT22;33686;48.770;9.186;2023-03-01T20:12:22;2.40;99.90
47921;DHT22;33686;48.770;9.186;2023-03-01T20:14:48;2.60;99.90
47921;DHT22;33686;48.770;9.186;2023-03-01T20:17:15;2.60;99.90
47921;DHT22;33686;48.770;9.186;2023-03-01T20:19:41;2.70;99.90
47921;DHT22;33686;48.770;9.186;2023-03-01T20:22:06;2.60;99.90
47921;DHT22;33686;48.770;9.186;2023-03-01T20:24:32;2.80;99.90
47921;DHT22;33686;48.770;9.186;2023-03-01T20:26:59;2.90;99.90
47921;DHT22;33686;48.770;9.186;2023-03-01T20:29:25;3.00;99.90
47921;DHT22;33686;48.770;9.186;2023-03-01T20:31:50;3.20;99.90
47921;DHT22;33686;48.770;9.186;2023-03-01T20:34:16;3.20;99.90
47921;DHT22;33686;48.770;9.186;2023-03-01T20:36:41;3.20;99.90
47921;DHT22;33686;48.770;9.186;2023-03-01T20:39:08;3.20;99.90
47921;DHT22;33686;48.770;9.186;2023-03-01T20:41:36;3.10;99.90
47921;DHT22;33686;48.770;9.186;2023-03-01T20:44:02;3.10;99.90
47921;DHT22;33686;48.770;9.186;2023-03-01T20:46:31;3.10;99.90
47921;DHT22;33686;48.770;9.186;2023-03-01T20:48:57;3.10;99.90
47921;DHT22;33686;48.770;9.186;2023-03-01T20:51:22;3.10;99.90
47921;DHT22;33686;48.770;9.186;2023-03-01T20:53:48;2.90;99.90
47921;DHT22;33686;48.770;9.186;2023-03-01T20:56:14;3.00;99.90
47921;DHT22;33686;48.770;9.186;2023-03-01T20:58:40;2.90;99.90
47921;DHT22;33686;48.770;9.186;2023-03-01T21:01:06;2.90;99.90
47921;DHT22;33686;48.770;9.186;2023-03-01T21:03:32;2.80;99.90
47921;DHT22;33686;48.770;9.186;2023-03-01T21:05:59;2.70;99.90
47921;DHT22;33686;48.770;9.186;2023-03-01T21:08:26;2.70;99.90
47921;DHT22;33686;48.770;9.186;2023-03-01T21:10:52;2.60;99.90
47921;DHT22;33686;48.770;9.186;2023-03-01T21:13:17;2.60;99.90
47921;DHT22;33686;48.770;9.186;2023-03-01T21:15:53;2.50;99.90
47921;DHT22;33686;48.770;9.186;2023-03-01T21:18:19;2.60;99.90
47921;DHT22;33686;48.770;9.186;2023-03-01T21:20:44;2.80;99.90
47921;DHT22;33686;48.770;9.186;2023-03-01T21:23:10;3.10;99.90
47921;DHT22;33686;48.770;9.186;2023-03-01T21:25:35;3.10;99.90
47921;DHT22;33686;48.770;9.186;2023-03-01T21:28:01;3.10;99.90
47921;DHT22;33686;48.770;9.186;2023-03-01T21:30:26;3.00;99.90
47921;DHT22;33686;48.770;9.186;2023-03-01T21:32:52;3.20;99.90
47921;DHT22;33686;48.770;9.186;2023-03-01T21:35:18;3.10;99.90
47921;DHT22;33686;48.770;9.186;2023-03-01T21:37:43;3.00;99.90
47921;DHT22;33686;48.770;9.186;2023-03-01T21:40:09;2.90;99.90
47921;DHT22;33686;48.770;9.186;2023-03-01T21:42:35;2.80;99.90
47921;DHT22;33686;48.770;9.186;2023-03-01T21:45:03;2.80;99.90
47921;DHT22;33686;48.770;9.186;2023-03-01T21:47:28;2.70;99.90
47921;DHT22;33686;48.770;9.186;2023-03-01T21:49:54;2.70;99.90
47921;DHT22;33686;48.770;9.186;2023-03-01T21:52:20;2.70;99.90
47921;DHT22;33686;48.770;9.186;2023-03-01T21:54:48;2.70;99.90
47921;DHT22;33686;48.770;9.186;2023-03-01T21:57:14;2.70;99.90
47921;DHT22;33686;48.770;9.186;2023-03-01T21:59:40;2.70;99.90
47921;DHT22;33686;48.770;9.186;2023-03-01T22:02:05;2.70;99.90
47921;DHT22;33686;48.770;9.186;2023-03-01T22:04:31;2.60;99.90
47921;DHT22;33686;48.770;9.186;2023-03-01T22:06:57;2.40;99.90
47921;DHT22;33686;48.770;9.186;2023-03-01T22:09:22;2.40;99.90
47921;DHT22;33686;48.770;9.186;2023-03-01T22:11:49;2.40;99.90
47921;DHT22;33686;48.770;9.186;2023-03-01T22:14:18;2.30;99.90
47921;DHT22;33686;48.770;9.186;2023-03-01T22:16:43;2.30;99.90
47921;DHT22;33686;48.770;9.186;2023-03-01T22:19:10;2.20;99.90
47921;DHT22;33686;48.770;9.186;2023-03-01T22:21:37;2.20;99.90
47921;DHT22;33686;48.770;9.186;2023-03-01T22:24:03;2.20;99.90
47921;DHT22;33686;48.770;9.186;2023-03-01T22:26:30;2.10;99.90
47921;DHT22;33686;48.770;9.186;2023-03-01T22:28:57;2.10;99.90
47921;DHT22;33686;48.770;9.186;2023-03-01T22:31:23;2.10;99.90
47921;DHT22;33686;48.770;9.186;2023-03-01T22:33:49;2.10;99.90
47921;DHT22;33686;48.770;9.186;2023-03-01T22:36:14;2.10;99.90
47921;DHT22;33686;48.770;9.186;2023-03-01T22:38:40;2.00;99.90
47921;DHT22;33686;48.770;9.186;2023-03-01T22:41:06;2.10;99.90
47921;DHT22;33686;48.770;9.186;2023-03-01T22:43:31;2.10;99.90
47921;DHT22;33686;48.770;9.186;2023-03-01T22:45:57;2.30;99.90
47921;DHT22;33686;48.770;9.186;2023-03-01T22:48:23;2.20;99.90
47921;DHT22;33686;48.770;9.186;2023-03-01T22:50:49;2.00;99.90
47921;DHT22;33686;48.770;9.186;2023-03-01T22:53:14;2.00;99.90
47921;DHT22;33686;48.770;9.186;2023-03-01T22:55:40;2.00;99.90
47921;DHT22;33686;48.770;9.186;2023-03-01T22:58:06;2.00;99.90
